createdAt,value
2017-11-08T00:00:09.961Z,0.00
2017-11-08T00:01:09.884Z,0.00
2017-11-08T00:02:09.791Z,0.00
2017-11-08T00:03:09.705Z,0.00
2017-11-08T00:04:09.630Z,0.00
2017-11-08T00:05:09.552Z,0.00
2017-11-08T00:06:09.450Z,0.00
2017-11-08T00:07:09.395Z,0.00
2017-11-08T00:08:09.283Z,0.00
2017-11-08T00:09:09.196Z,0.00
2017-11-08T00:10:09.114Z,0.00
2017-11-08T00:11:09.034Z,0.00
2017-11-08T00:12:08.944Z,0.00
2017-11-08T00:13:08.873Z,0.00
2017-11-08T00:14:08.770Z,0.00
2017-11-08T00:15:08.706Z,0.00
2017-11-08T00:16:08.610Z,0.00
2017-11-08T00:17:08.524Z,0.00
2017-11-08T00:18:08.439Z,0.00
2017-11-08T00:19:08.359Z,0.00
2017-11-08T00:20:08.268Z,0.00
2017-11-08T00:21:08.183Z,0.00
2017-11-08T00:22:08.098Z,0.00
2017-11-08T00:23:08.013Z,0.00
2017-11-08T00:24:07.928Z,0.00
2017-11-08T00:25:07.852Z,0.00
2017-11-08T00:26:07.767Z,0.00
2017-11-08T00:27:07.697Z,0.00
2017-11-08T00:28:07.589Z,0.00
2017-11-08T00:29:07.502Z,0.00
2017-11-08T00:30:07.419Z,0.00
2017-11-08T00:31:07.338Z,0.00
2017-11-08T00:32:07.249Z,0.00
2017-11-08T00:33:07.179Z,0.00
2017-11-08T00:34:07.080Z,0.00
2017-11-08T00:35:07.000Z,0.00
2017-11-08T00:36:06.920Z,0.00
2017-11-08T00:37:06.839Z,0.00
2017-11-08T00:38:06.748Z,0.00
2017-11-08T00:39:06.657Z,0.00
2017-11-08T00:40:06.580Z,0.00
2017-11-08T00:41:06.494Z,0.00
2017-11-08T00:42:06.414Z,0.00
2017-11-08T00:43:06.332Z,0.00
2017-11-08T00:44:06.236Z,0.00
2017-11-08T00:45:06.154Z,0.00
2017-11-08T00:46:06.066Z,0.00
2017-11-08T00:47:05.979Z,0.00
2017-11-08T00:48:05.903Z,0.00
2017-11-08T00:49:05.813Z,0.00
2017-11-08T00:50:05.729Z,0.00
2017-11-08T00:51:05.643Z,0.00
2017-11-08T00:52:05.556Z,0.00
2017-11-08T00:53:05.473Z,0.00
2017-11-08T00:54:05.393Z,0.00
2017-11-08T00:55:05.314Z,0.00
2017-11-08T00:56:05.284Z,0.00
2017-11-08T00:57:05.138Z,0.00
2017-11-08T00:58:05.048Z,0.00
2017-11-08T00:59:04.967Z,0.00
2017-11-08T01:00:04.877Z,0.00
2017-11-08T01:01:04.797Z,0.00
2017-11-08T01:02:04.707Z,0.00
2017-11-08T01:03:04.631Z,0.00
2017-11-08T01:04:04.546Z,0.00
2017-11-08T01:05:04.469Z,0.00
2017-11-08T01:06:04.376Z,0.00
2017-11-08T01:07:04.291Z,0.00
2017-11-08T01:08:04.207Z,0.00
2017-11-08T01:09:04.128Z,0.00
2017-11-08T01:10:04.036Z,0.00
2017-11-08T01:11:03.949Z,0.00
2017-11-08T01:12:03.884Z,0.00
2017-11-08T01:13:03.786Z,0.00
2017-11-08T01:14:03.700Z,0.00
2017-11-08T01:15:03.614Z,0.00
2017-11-08T01:16:03.531Z,0.00
2017-11-08T01:17:03.442Z,0.00
2017-11-08T01:18:03.365Z,0.00
2017-11-08T01:19:03.275Z,0.00
2017-11-08T01:20:03.194Z,0.00
2017-11-08T01:21:03.109Z,0.00
2017-11-08T01:22:03.022Z,0.00
2017-11-08T01:23:02.946Z,0.00
2017-11-08T01:24:02.857Z,0.00
2017-11-08T01:25:02.772Z,0.00
2017-11-08T01:26:02.679Z,0.00
2017-11-08T01:27:02.602Z,0.00
2017-11-08T01:28:02.511Z,0.00
2017-11-08T01:29:02.436Z,0.00
2017-11-08T01:30:02.380Z,0.00
2017-11-08T01:31:02.266Z,0.00
2017-11-08T01:32:02.174Z,0.00
2017-11-08T01:33:02.109Z,0.00
2017-11-08T01:34:02.005Z,0.00
2017-11-08T01:35:01.922Z,0.00
2017-11-08T01:36:01.837Z,0.00
2017-11-08T01:37:01.754Z,0.00
2017-11-08T01:38:01.678Z,0.00
2017-11-08T01:39:01.585Z,0.00
2017-11-08T01:40:01.500Z,0.00
2017-11-08T01:41:01.433Z,0.00
2017-11-08T01:42:01.336Z,0.00
2017-11-08T01:43:01.239Z,0.00
2017-11-08T01:44:01.227Z,0.00
2017-11-08T01:45:01.076Z,0.00
2017-11-08T01:46:00.994Z,0.00
2017-11-08T01:47:00.904Z,0.00
2017-11-08T01:48:00.818Z,0.00
2017-11-08T01:49:00.738Z,0.00
2017-11-08T01:50:00.657Z,0.00
2017-11-08T01:51:00.568Z,0.00
2017-11-08T01:52:00.484Z,0.00
2017-11-08T01:53:00.402Z,0.00
2017-11-08T01:54:00.338Z,0.00
2017-11-08T01:55:00.225Z,0.00
2017-11-08T01:56:00.143Z,0.00
2017-11-08T01:57:00.059Z,0.00
2017-11-08T01:57:59.989Z,0.00
2017-11-08T01:58:59.893Z,0.00
2017-11-08T01:59:59.803Z,0.00
2017-11-08T02:00:59.722Z,0.00
2017-11-08T02:01:59.636Z,0.00
2017-11-08T02:02:59.556Z,0.00
2017-11-08T02:03:59.462Z,0.00
2017-11-08T02:04:59.381Z,0.00
2017-11-08T02:05:59.296Z,0.00
2017-11-08T02:06:59.223Z,0.00
2017-11-08T02:07:59.124Z,0.00
2017-11-08T02:08:59.063Z,0.00
2017-11-08T02:09:58.967Z,0.00
2017-11-08T02:10:58.875Z,0.00
2017-11-08T02:11:58.802Z,0.00
2017-11-08T02:12:58.706Z,0.00
2017-11-08T02:13:58.619Z,0.00
2017-11-08T02:14:58.533Z,0.00
2017-11-08T02:15:58.449Z,0.00
2017-11-08T02:16:58.366Z,0.00
2017-11-08T02:17:58.286Z,0.00
2017-11-08T02:18:58.190Z,0.00
2017-11-08T02:19:58.125Z,0.00
2017-11-08T02:20:58.028Z,0.00
2017-11-08T02:21:57.946Z,0.00
2017-11-08T02:22:57.865Z,0.00
2017-11-08T02:23:57.774Z,0.00
2017-11-08T02:24:57.721Z,0.00
2017-11-08T02:25:57.603Z,0.00
2017-11-08T02:26:57.514Z,0.00
2017-11-08T02:27:57.439Z,0.00
2017-11-08T02:28:57.353Z,0.00
2017-11-08T02:29:57.261Z,0.00
2017-11-08T02:30:57.184Z,0.00
2017-11-08T02:31:57.091Z,0.00
2017-11-08T02:32:57.009Z,0.00
2017-11-08T02:33:56.941Z,0.00
2017-11-08T02:34:56.862Z,0.00
2017-11-08T02:35:56.759Z,0.00
2017-11-08T02:36:56.667Z,0.00
2017-11-08T02:37:56.590Z,0.00
2017-11-08T02:38:56.506Z,0.00
2017-11-08T02:39:56.421Z,0.00
2017-11-08T02:40:56.338Z,0.00
2017-11-08T02:41:56.242Z,0.00
2017-11-08T02:42:56.164Z,0.00
2017-11-08T02:43:56.084Z,0.00
2017-11-08T02:44:56.001Z,0.00
2017-11-08T02:45:55.923Z,0.00
2017-11-08T02:46:55.826Z,0.00
2017-11-08T02:47:55.742Z,0.00
2017-11-08T02:48:55.742Z,0.00
2017-11-08T02:49:55.580Z,0.00
2017-11-08T02:50:55.479Z,0.00
2017-11-08T02:51:55.400Z,0.00
2017-11-08T02:52:55.318Z,0.00
2017-11-08T02:53:55.258Z,0.00
2017-11-08T02:54:55.152Z,0.00
2017-11-08T02:55:55.067Z,0.00
2017-11-08T02:56:54.991Z,0.00
2017-11-08T02:57:54.893Z,0.00
2017-11-08T02:58:54.807Z,0.00
2017-11-08T02:59:54.724Z,0.00
2017-11-08T03:00:54.637Z,0.00
2017-11-08T03:01:54.554Z,0.00
2017-11-08T03:02:54.466Z,0.00
2017-11-08T03:03:54.390Z,0.00
2017-11-08T03:04:54.300Z,0.00
2017-11-08T03:05:54.214Z,0.00
2017-11-08T03:06:54.128Z,0.00
2017-11-08T03:07:54.055Z,0.00
2017-11-08T03:08:53.965Z,0.00
2017-11-08T03:09:53.877Z,0.00
2017-11-08T03:10:53.797Z,0.00
2017-11-08T03:11:53.703Z,0.00
2017-11-08T03:12:53.619Z,0.00
2017-11-08T03:13:53.534Z,0.00
2017-11-08T03:14:53.450Z,0.00
2017-11-08T03:15:53.386Z,0.00
2017-11-08T03:16:53.303Z,0.00
2017-11-08T03:17:53.200Z,0.00
2017-11-08T03:18:53.113Z,0.00
2017-11-08T03:19:53.030Z,0.00
2017-11-08T03:20:52.945Z,0.00
2017-11-08T03:21:52.874Z,0.00
2017-11-08T03:22:52.781Z,0.00
2017-11-08T03:23:52.686Z,0.00
2017-11-08T03:24:52.609Z,0.00
2017-11-08T03:25:52.520Z,0.00
2017-11-08T03:26:52.437Z,0.00
2017-11-08T03:27:52.356Z,0.00
2017-11-08T03:28:52.274Z,0.00
2017-11-08T03:29:52.179Z,0.00
2017-11-08T03:30:52.097Z,0.00
2017-11-08T03:31:52.009Z,0.00
2017-11-08T03:32:51.947Z,0.00
2017-11-08T03:33:51.850Z,0.00
2017-11-08T03:34:51.762Z,0.00
2017-11-08T03:35:51.674Z,0.00
2017-11-08T03:36:51.597Z,0.00
2017-11-08T03:37:51.497Z,0.00
2017-11-08T03:38:51.417Z,0.00
2017-11-08T03:39:51.332Z,0.00
2017-11-08T03:40:51.250Z,0.00
2017-11-08T03:41:51.164Z,0.00
2017-11-08T03:42:51.081Z,0.00
2017-11-08T03:43:51.000Z,0.00
2017-11-08T03:44:50.915Z,0.00
2017-11-08T03:45:50.825Z,0.00
2017-11-08T03:46:50.748Z,0.00
2017-11-08T03:47:50.662Z,0.00
2017-11-08T03:48:50.585Z,0.00
2017-11-08T03:49:50.492Z,0.00
2017-11-08T03:50:50.404Z,0.00
2017-11-08T03:51:50.314Z,0.00
2017-11-08T03:52:50.247Z,0.00
2017-11-08T03:53:50.156Z,0.00
2017-11-08T03:54:50.065Z,0.00
2017-11-08T03:55:49.976Z,0.00
2017-11-08T03:56:49.892Z,0.00
2017-11-08T03:57:49.810Z,0.00
2017-11-08T03:58:49.728Z,0.00
2017-11-08T03:59:49.644Z,0.00
2017-11-08T04:00:49.555Z,0.00
2017-11-08T04:01:49.479Z,0.00
2017-11-08T04:02:49.389Z,0.00
2017-11-08T04:03:49.305Z,0.00
2017-11-08T04:04:49.219Z,0.00
2017-11-08T04:05:49.137Z,0.00
2017-11-08T04:06:49.048Z,0.00
2017-11-08T04:07:48.970Z,0.00
2017-11-08T04:08:48.878Z,0.00
2017-11-08T04:09:48.791Z,0.00
2017-11-08T04:10:48.706Z,0.00
2017-11-08T04:11:48.638Z,0.00
2017-11-08T04:12:48.543Z,0.00
2017-11-08T04:13:48.454Z,0.00
2017-11-08T04:14:48.368Z,0.00
2017-11-08T04:15:48.286Z,0.00
2017-11-08T04:16:48.201Z,0.00
2017-11-08T04:17:48.116Z,0.00
2017-11-08T04:18:48.031Z,0.00
2017-11-08T04:19:47.943Z,0.00
2017-11-08T04:20:47.860Z,0.00
2017-11-08T04:21:47.773Z,0.00
2017-11-08T04:22:47.698Z,0.00
2017-11-08T04:23:47.626Z,0.00
2017-11-08T04:24:47.525Z,0.00
2017-11-08T04:25:47.439Z,0.00
2017-11-08T04:26:47.360Z,0.00
2017-11-08T04:27:47.265Z,0.00
2017-11-08T04:28:47.186Z,0.00
2017-11-08T04:29:47.097Z,0.00
2017-11-08T04:30:47.021Z,0.00
2017-11-08T04:31:46.942Z,0.00
2017-11-08T04:32:46.843Z,0.00
2017-11-08T04:33:46.755Z,0.00
2017-11-08T04:34:46.677Z,0.00
2017-11-08T04:35:46.590Z,0.00
2017-11-08T04:36:46.505Z,0.00
2017-11-08T04:37:46.417Z,0.00
2017-11-08T04:38:46.332Z,0.00
2017-11-08T04:39:46.268Z,0.00
2017-11-08T04:40:46.171Z,0.00
2017-11-08T04:41:46.083Z,0.00
2017-11-08T04:42:45.992Z,0.00
2017-11-08T04:43:45.922Z,0.00
2017-11-08T04:44:45.829Z,0.00
2017-11-08T04:45:45.742Z,0.00
2017-11-08T04:46:45.660Z,0.00
2017-11-08T04:47:45.569Z,0.00
2017-11-08T04:48:45.483Z,0.00
2017-11-08T04:49:45.406Z,0.00
2017-11-08T04:50:45.319Z,0.00
2017-11-08T04:51:45.236Z,0.00
2017-11-08T04:52:45.145Z,0.00
2017-11-08T04:53:45.072Z,0.00
2017-11-08T04:54:44.981Z,0.00
2017-11-08T04:55:44.900Z,0.00
2017-11-08T04:56:44.808Z,0.00
2017-11-08T04:57:44.726Z,0.00
2017-11-08T04:58:44.637Z,0.00
2017-11-08T04:59:44.554Z,0.00
2017-11-08T05:00:44.472Z,0.00
2017-11-08T05:01:44.384Z,0.00
2017-11-08T05:02:44.305Z,0.00
2017-11-08T05:03:44.215Z,0.00
2017-11-08T05:04:44.130Z,0.00
2017-11-08T05:05:44.047Z,0.00
2017-11-08T05:06:43.956Z,0.00
2017-11-08T05:07:43.874Z,0.00
2017-11-08T05:08:43.807Z,0.00
2017-11-08T05:09:43.715Z,0.00
2017-11-08T05:10:43.635Z,0.00
2017-11-08T05:11:43.540Z,0.00
2017-11-08T05:12:43.459Z,0.00
2017-11-08T05:13:43.365Z,0.00
2017-11-08T05:14:43.283Z,0.00
2017-11-08T05:15:43.198Z,0.00
2017-11-08T05:16:43.114Z,0.00
2017-11-08T05:17:43.025Z,0.00
2017-11-08T05:18:42.951Z,0.00
2017-11-08T05:19:42.863Z,0.00
2017-11-08T05:20:42.779Z,0.00
2017-11-08T05:21:42.696Z,0.00
2017-11-08T05:22:42.602Z,0.00
2017-11-08T05:23:42.511Z,0.00
2017-11-08T05:24:42.434Z,0.00
2017-11-08T05:25:42.345Z,0.00
2017-11-08T05:26:42.269Z,0.00
2017-11-08T05:27:42.187Z,0.00
2017-11-08T05:28:42.122Z,0.00
2017-11-08T05:29:42.008Z,0.00
2017-11-08T05:30:41.922Z,0.00
2017-11-08T05:31:41.839Z,0.00
2017-11-08T05:32:41.754Z,0.00
2017-11-08T05:33:41.671Z,0.00
2017-11-08T05:34:41.586Z,0.00
2017-11-08T05:35:41.501Z,0.00
2017-11-08T05:36:41.413Z,0.00
2017-11-08T05:37:41.332Z,0.00
2017-11-08T05:38:41.262Z,0.00
2017-11-08T05:39:41.161Z,0.00
2017-11-08T05:40:41.075Z,0.00
2017-11-08T05:41:40.991Z,0.00
2017-11-08T05:42:40.907Z,0.00
2017-11-08T05:43:40.825Z,0.00
2017-11-08T05:44:40.738Z,0.00
2017-11-08T05:45:40.648Z,0.00
2017-11-08T05:46:40.568Z,0.00
2017-11-08T05:47:40.488Z,0.00
2017-11-08T05:48:40.395Z,0.00
2017-11-08T05:49:40.317Z,0.00
2017-11-08T05:50:40.228Z,0.00
2017-11-08T05:51:40.142Z,0.00
2017-11-08T05:52:40.058Z,0.00
2017-11-08T05:53:39.976Z,0.00
2017-11-08T05:54:39.894Z,0.00
2017-11-08T05:55:39.801Z,0.00
2017-11-08T05:56:39.756Z,0.00
2017-11-08T05:57:39.641Z,0.00
2017-11-08T05:58:39.546Z,0.00
2017-11-08T05:59:39.464Z,0.00
2017-11-08T06:00:39.379Z,0.00
2017-11-08T06:01:39.293Z,0.00
2017-11-08T06:02:39.216Z,0.00
2017-11-08T06:03:39.141Z,0.00
2017-11-08T06:04:39.043Z,0.00
2017-11-08T06:05:38.957Z,0.00
2017-11-08T06:06:38.872Z,0.00
2017-11-08T06:07:38.790Z,0.00
2017-11-08T06:08:38.699Z,4.00
2017-11-08T06:09:38.612Z,4.00
2017-11-08T06:10:38.527Z,4.00
2017-11-08T06:11:38.452Z,0.00
2017-11-08T06:12:38.369Z,0.00
2017-11-08T06:13:38.277Z,4.00
2017-11-08T06:14:38.198Z,4.00
2017-11-08T06:15:38.114Z,4.00
2017-11-08T06:16:38.033Z,4.00
2017-11-08T06:17:37.944Z,4.00
2017-11-08T06:18:37.849Z,8.00
2017-11-08T06:19:37.769Z,8.00
2017-11-08T06:20:37.685Z,8.00
2017-11-08T06:21:37.610Z,12.00
2017-11-08T06:22:37.520Z,12.00
2017-11-08T06:23:37.431Z,12.00
2017-11-08T06:24:37.339Z,12.00
2017-11-08T06:25:37.260Z,16.00
2017-11-08T06:26:37.174Z,16.00
2017-11-08T06:27:37.087Z,20.00
2017-11-08T06:28:37.049Z,24.00
2017-11-08T06:29:36.918Z,28.00
2017-11-08T06:30:36.848Z,28.00
2017-11-08T06:31:36.746Z,28.00
2017-11-08T06:32:36.669Z,32.00
2017-11-08T06:33:36.588Z,36.00
2017-11-08T06:34:36.496Z,40.00
2017-11-08T06:35:36.412Z,36.00
2017-11-08T06:36:36.324Z,40.00
2017-11-08T06:37:36.243Z,40.00
2017-11-08T06:38:36.157Z,44.00
2017-11-08T06:39:36.071Z,48.00
2017-11-08T06:40:35.987Z,52.00
2017-11-08T06:41:35.907Z,52.00
2017-11-08T06:42:35.823Z,52.00
2017-11-08T06:43:35.740Z,56.00
2017-11-08T06:44:35.649Z,60.00
2017-11-08T06:45:35.565Z,56.00
2017-11-08T06:46:35.474Z,60.00
2017-11-08T06:47:35.389Z,76.00
2017-11-08T06:48:35.307Z,84.00
2017-11-08T06:49:35.224Z,92.00
2017-11-08T06:50:35.140Z,92.00
2017-11-08T06:51:35.050Z,92.00
2017-11-08T06:52:34.970Z,88.00
2017-11-08T06:53:34.884Z,88.00
2017-11-08T06:54:34.804Z,92.00
2017-11-08T06:55:34.716Z,96.00
2017-11-08T06:56:34.634Z,100.00
2017-11-08T06:57:34.545Z,100.00
2017-11-08T06:58:34.457Z,108.00
2017-11-08T06:59:34.383Z,112.00
2017-11-08T07:00:34.288Z,112.00
2017-11-08T07:01:34.204Z,120.00
2017-11-08T07:02:34.121Z,128.00
2017-11-08T07:03:34.039Z,132.00
2017-11-08T07:04:33.957Z,128.00
2017-11-08T07:05:33.868Z,140.00
2017-11-08T07:06:33.787Z,136.00
2017-11-08T07:07:33.695Z,112.00
2017-11-08T07:08:33.609Z,108.00
2017-11-08T07:09:33.522Z,112.00
2017-11-08T07:10:33.434Z,112.00
2017-11-08T07:11:33.351Z,120.00
2017-11-08T07:12:33.266Z,132.00
2017-11-08T07:13:33.177Z,128.00
2017-11-08T07:14:33.099Z,124.00
2017-11-08T07:15:33.015Z,132.00
2017-11-08T07:16:32.925Z,132.00
2017-11-08T07:17:32.840Z,120.00
2017-11-08T07:18:32.764Z,120.00
2017-11-08T07:19:32.667Z,116.00
2017-11-08T07:20:32.586Z,104.00
2017-11-08T07:21:32.492Z,108.00
2017-11-08T07:22:32.412Z,116.00
2017-11-08T07:23:32.323Z,124.00
2017-11-08T07:24:32.238Z,132.00
2017-11-08T07:25:32.152Z,132.00
2017-11-08T07:26:32.084Z,144.00
2017-11-08T07:27:31.982Z,156.00
2017-11-08T07:28:31.898Z,160.00
2017-11-08T07:29:31.807Z,160.00
2017-11-08T07:30:31.743Z,172.00
2017-11-08T07:31:31.661Z,176.00
2017-11-08T07:32:31.553Z,184.00
2017-11-08T07:33:31.464Z,204.00
2017-11-08T07:34:31.385Z,216.00
2017-11-08T07:35:31.297Z,216.00
2017-11-08T07:36:31.219Z,212.00
2017-11-08T07:37:31.129Z,216.00
2017-11-08T07:38:31.068Z,212.00
2017-11-08T07:39:30.956Z,208.00
2017-11-08T07:40:30.867Z,208.00
2017-11-08T07:41:30.779Z,216.00
2017-11-08T07:42:30.696Z,228.00
2017-11-08T07:43:30.610Z,228.00
2017-11-08T07:44:30.516Z,228.00
2017-11-08T07:45:30.447Z,244.00
2017-11-08T07:46:30.354Z,296.00
2017-11-08T07:47:30.263Z,328.00
2017-11-08T07:48:30.179Z,356.00
2017-11-08T07:49:30.091Z,384.00
2017-11-08T07:50:30.008Z,388.00
2017-11-08T07:51:29.933Z,384.00
2017-11-08T07:52:29.849Z,388.00
2017-11-08T07:53:29.757Z,396.00
2017-11-08T07:54:29.670Z,412.00
2017-11-08T07:55:29.579Z,424.00
2017-11-08T07:56:29.498Z,428.00
2017-11-08T07:57:29.405Z,420.00
2017-11-08T07:58:29.325Z,424.00
2017-11-08T07:59:29.233Z,424.00
2017-11-08T08:00:29.151Z,432.00
2017-11-08T08:01:29.065Z,436.00
2017-11-08T08:02:29.001Z,420.00
2017-11-08T08:03:28.915Z,432.00
2017-11-08T08:04:28.801Z,432.00
2017-11-08T08:05:28.724Z,460.00
2017-11-08T08:06:28.629Z,488.00
2017-11-08T08:07:28.550Z,532.00
2017-11-08T08:08:28.466Z,548.00
2017-11-08T08:09:28.379Z,552.00
2017-11-08T08:10:28.293Z,552.00
2017-11-08T08:11:28.216Z,540.00
2017-11-08T08:12:28.122Z,552.00
2017-11-08T08:13:28.031Z,568.00
2017-11-08T08:14:27.947Z,544.00
2017-11-08T08:15:27.873Z,532.00
2017-11-08T08:16:27.767Z,576.00
2017-11-08T08:17:27.681Z,564.00
2017-11-08T08:18:27.604Z,568.00
2017-11-08T08:19:27.510Z,532.00
2017-11-08T08:20:27.424Z,528.00
2017-11-08T08:21:27.336Z,520.00
2017-11-08T08:22:27.247Z,544.00
2017-11-08T08:23:27.181Z,568.00
2017-11-08T08:24:27.101Z,580.00
2017-11-08T08:25:27.003Z,580.00
2017-11-08T08:26:26.908Z,564.00
2017-11-08T08:27:26.830Z,556.00
2017-11-08T08:28:26.737Z,544.00
2017-11-08T08:29:26.648Z,584.00
2017-11-08T08:30:26.565Z,556.00
2017-11-08T08:31:26.480Z,624.00
2017-11-08T08:32:26.395Z,620.00
2017-11-08T08:33:26.302Z,612.00
2017-11-08T08:34:26.221Z,608.00
2017-11-08T08:35:26.133Z,588.00
2017-11-08T08:36:26.054Z,588.00
2017-11-08T08:37:25.965Z,596.00
2017-11-08T08:38:25.876Z,608.00
2017-11-08T08:39:25.789Z,596.00
2017-11-08T08:40:25.706Z,572.00
2017-11-08T08:41:25.613Z,580.00
2017-11-08T08:42:25.531Z,592.00
2017-11-08T08:43:25.441Z,560.00
2017-11-08T08:44:25.360Z,580.00
2017-11-08T08:45:25.279Z,572.00
2017-11-08T08:46:25.187Z,552.00
2017-11-08T08:47:25.109Z,540.00
2017-11-08T08:48:25.012Z,516.00
2017-11-08T08:49:24.923Z,484.00
2017-11-08T08:50:24.856Z,504.00
2017-11-08T08:51:24.759Z,500.00
2017-11-08T08:52:24.671Z,496.00
2017-11-08T08:53:24.582Z,524.00
2017-11-08T08:54:24.521Z,532.00
2017-11-08T08:55:24.424Z,568.00
2017-11-08T08:56:24.343Z,596.00
2017-11-08T08:57:24.244Z,588.00
2017-11-08T08:58:24.155Z,588.00
2017-11-08T08:59:24.080Z,632.00
2017-11-08T09:00:23.989Z,624.00
2017-11-08T09:01:23.894Z,660.00
2017-11-08T09:02:23.810Z,680.00
2017-11-08T09:03:23.722Z,692.00
2017-11-08T09:04:23.635Z,720.00
2017-11-08T09:05:23.554Z,760.00
2017-11-08T09:06:23.460Z,760.00
2017-11-08T09:07:23.375Z,772.00
2017-11-08T09:08:23.285Z,808.00
2017-11-08T09:09:23.204Z,796.00
2017-11-08T09:10:23.122Z,828.00
2017-11-08T09:11:23.034Z,792.00
2017-11-08T09:12:22.945Z,816.00
2017-11-08T09:13:22.859Z,844.00
2017-11-08T09:14:22.772Z,824.00
2017-11-08T09:15:22.686Z,904.00
2017-11-08T09:16:22.618Z,888.00
2017-11-08T09:17:22.516Z,896.00
2017-11-08T09:18:22.422Z,928.00
2017-11-08T09:19:22.339Z,944.00
2017-11-08T09:20:22.257Z,960.00
2017-11-08T09:21:22.167Z,1016.00
2017-11-08T09:22:22.103Z,1052.00
2017-11-08T09:23:21.999Z,1044.00
2017-11-08T09:24:21.951Z,1084.00
2017-11-08T09:25:21.826Z,1080.00
2017-11-08T09:26:21.755Z,1112.00
2017-11-08T09:27:21.671Z,1140.00
2017-11-08T09:28:21.580Z,1132.00
2017-11-08T09:29:21.478Z,1152.00
2017-11-08T09:30:21.380Z,1328.00
2017-11-08T09:31:21.297Z,1320.00
2017-11-08T09:32:21.212Z,1508.00
2017-11-08T09:33:21.126Z,1484.00
2017-11-08T09:34:21.055Z,1432.00
2017-11-08T09:35:20.952Z,1268.00
2017-11-08T09:36:20.870Z,1252.00
2017-11-08T09:37:20.778Z,1260.00
2017-11-08T09:38:20.702Z,1156.00
2017-11-08T09:39:20.622Z,1088.00
2017-11-08T09:40:20.528Z,1072.00
2017-11-08T09:41:20.441Z,1116.00
2017-11-08T09:42:20.343Z,1140.00
2017-11-08T09:43:20.259Z,1124.00
2017-11-08T09:44:20.180Z,1164.00
2017-11-08T09:45:20.096Z,1232.00
2017-11-08T09:46:20.000Z,1276.00
2017-11-08T09:47:19.915Z,1316.00
2017-11-08T09:48:19.866Z,1352.00
2017-11-08T09:49:19.814Z,1344.00
2017-11-08T09:50:19.652Z,1456.00
2017-11-08T09:51:19.576Z,1508.00
2017-11-08T09:52:19.490Z,1524.00
2017-11-08T09:53:19.395Z,1520.00
2017-11-08T09:54:19.310Z,1556.00
2017-11-08T09:55:19.221Z,1520.00
2017-11-08T09:56:19.136Z,1572.00
2017-11-08T09:57:19.047Z,1584.00
2017-11-08T09:58:18.977Z,1556.00
2017-11-08T09:59:18.891Z,1628.00
2017-11-08T10:00:18.791Z,1696.00
2017-11-08T10:01:18.706Z,1708.00
2017-11-08T10:02:18.641Z,1780.00
2017-11-08T10:03:18.550Z,1704.00
2017-11-08T10:04:18.476Z,1728.00
2017-11-08T10:05:18.362Z,1660.00
2017-11-08T10:06:18.302Z,1552.00
2017-11-08T10:07:18.220Z,1580.00
2017-11-08T10:08:18.106Z,1568.00
2017-11-08T10:09:18.042Z,1628.00
2017-11-08T10:10:17.970Z,1648.00
2017-11-08T10:11:17.843Z,1632.00
2017-11-08T10:12:17.764Z,1624.00
2017-11-08T10:13:17.682Z,1580.00
2017-11-08T10:14:17.613Z,1516.00
2017-11-08T10:15:17.494Z,1516.00
2017-11-08T10:16:17.437Z,1400.00
2017-11-08T10:17:17.323Z,1372.00
2017-11-08T10:18:17.240Z,1312.00
2017-11-08T10:19:17.150Z,1288.00
2017-11-08T10:20:17.075Z,1284.00
2017-11-08T10:21:16.986Z,1188.00
2017-11-08T10:22:16.913Z,1176.00
2017-11-08T10:23:16.820Z,1152.00
2017-11-08T10:24:16.726Z,1208.00
2017-11-08T10:25:16.633Z,1180.00
2017-11-08T10:26:16.547Z,1136.00
2017-11-08T10:27:16.461Z,1108.00
2017-11-08T10:28:16.374Z,1088.00
2017-11-08T10:29:16.295Z,1116.00
2017-11-08T10:30:16.201Z,1172.00
2017-11-08T10:31:16.122Z,1192.00
2017-11-08T10:32:16.036Z,1248.00
2017-11-08T10:33:15.945Z,1232.00
2017-11-08T10:34:15.858Z,1332.00
2017-11-08T10:35:15.775Z,1296.00
2017-11-08T10:36:15.685Z,1336.00
2017-11-08T10:37:15.600Z,1304.00
2017-11-08T10:38:15.523Z,1308.00
2017-11-08T10:39:15.428Z,1352.00
2017-11-08T10:40:15.349Z,1400.00
2017-11-08T10:41:15.258Z,1400.00
2017-11-08T10:42:15.153Z,1356.00
2017-11-08T10:43:15.061Z,1272.00
2017-11-08T10:44:14.965Z,1272.00
2017-11-08T10:45:14.876Z,1332.00
2017-11-08T10:46:14.792Z,1340.00
2017-11-08T10:47:14.710Z,1336.00
2017-11-08T10:48:14.621Z,1448.00
2017-11-08T10:49:14.526Z,1560.00
2017-11-08T10:50:14.440Z,1528.00
2017-11-08T10:51:14.357Z,1668.00
2017-11-08T10:52:14.286Z,1696.00
2017-11-08T10:53:14.194Z,1684.00
2017-11-08T10:54:14.092Z,1684.00
2017-11-08T10:55:14.006Z,1648.00
2017-11-08T10:56:13.935Z,1612.00
2017-11-08T10:57:13.842Z,1596.00
2017-11-08T10:58:13.754Z,1604.00
2017-11-08T10:59:13.659Z,1644.00
2017-11-08T11:00:13.580Z,1656.00
2017-11-08T11:01:13.487Z,1568.00
2017-11-08T11:02:13.445Z,1500.00
2017-11-08T11:03:13.334Z,1424.00
2017-11-08T11:04:13.240Z,1376.00
2017-11-08T11:05:13.182Z,1372.00
2017-11-08T11:06:13.055Z,1252.00
2017-11-08T11:07:12.990Z,1144.00
2017-11-08T11:08:12.904Z,1100.00
2017-11-08T11:09:12.809Z,1072.00
2017-11-08T11:10:12.718Z,972.00
2017-11-08T11:11:12.626Z,916.00
2017-11-08T11:12:12.541Z,860.00
2017-11-08T11:13:12.460Z,884.00
2017-11-08T11:14:12.366Z,892.00
2017-11-08T11:15:12.281Z,952.00
2017-11-08T11:16:12.200Z,984.00
2017-11-08T11:17:12.103Z,976.00
2017-11-08T11:18:12.033Z,1040.00
2017-11-08T11:19:11.939Z,1128.00
2017-11-08T11:20:11.848Z,1160.00
2017-11-08T11:21:11.755Z,1284.00
2017-11-08T11:22:11.666Z,1336.00
2017-11-08T11:23:11.587Z,1380.00
2017-11-08T11:24:11.499Z,1416.00
2017-11-08T11:25:11.410Z,1372.00
2017-11-08T11:26:11.324Z,1412.00
2017-11-08T11:27:11.239Z,1532.00
2017-11-08T11:28:11.150Z,1660.00
2017-11-08T11:29:11.073Z,1796.00
2017-11-08T11:30:10.989Z,1980.00
2017-11-08T11:31:10.897Z,2132.00
2017-11-08T11:32:10.830Z,2328.00
2017-11-08T11:33:10.720Z,2400.00
2017-11-08T11:34:10.636Z,2376.00
2017-11-08T11:35:10.556Z,2336.00
2017-11-08T11:36:10.465Z,2248.00
2017-11-08T11:37:10.374Z,2160.00
2017-11-08T11:38:10.289Z,1972.00
2017-11-08T11:39:10.204Z,2028.00
2017-11-08T11:40:10.129Z,1972.00
2017-11-08T11:41:10.038Z,1912.00
2017-11-08T11:42:09.955Z,1900.00
2017-11-08T11:43:09.866Z,1868.00
2017-11-08T11:44:09.782Z,1796.00
2017-11-08T11:45:09.729Z,1692.00
2017-11-08T11:46:09.605Z,1680.00
2017-11-08T11:47:09.516Z,1772.00
2017-11-08T11:48:09.440Z,1820.00
2017-11-08T11:49:09.353Z,1840.00
2017-11-08T11:50:09.259Z,1876.00
2017-11-08T11:51:09.171Z,1892.00
2017-11-08T11:52:09.098Z,1904.00
2017-11-08T11:53:09.011Z,1736.00
2017-11-08T11:54:08.923Z,1764.00
2017-11-08T11:55:08.852Z,1752.00
2017-11-08T11:56:08.754Z,1744.00
2017-11-08T11:57:08.682Z,1712.00
2017-11-08T11:58:08.587Z,1596.00
2017-11-08T11:59:08.498Z,1608.00
2017-11-08T12:00:08.430Z,1592.00
2017-11-08T12:01:08.396Z,1576.00
2017-11-08T12:02:08.250Z,1632.00
2017-11-08T12:03:08.152Z,1688.00
2017-11-08T12:04:08.072Z,1752.00
2017-11-08T12:05:07.985Z,1772.00
2017-11-08T12:06:07.892Z,1840.00
2017-11-08T12:07:07.810Z,1888.00
2017-11-08T12:08:07.729Z,1864.00
2017-11-08T12:09:07.633Z,1860.00
2017-11-08T12:10:07.552Z,1824.00
2017-11-08T12:11:07.464Z,1816.00
2017-11-08T12:12:07.426Z,1748.00
2017-11-08T12:13:07.305Z,1700.00
2017-11-08T12:14:07.206Z,1680.00
2017-11-08T12:15:07.130Z,1668.00
2017-11-08T12:16:07.037Z,1644.00
2017-11-08T12:17:06.954Z,1580.00
2017-11-08T12:18:06.871Z,1572.00
2017-11-08T12:19:06.791Z,1584.00
2017-11-08T12:20:06.701Z,1628.00
2017-11-08T12:21:06.608Z,1604.00
2017-11-08T12:22:06.520Z,1544.00
2017-11-08T12:23:06.439Z,1528.00
2017-11-08T12:24:06.346Z,1520.00
2017-11-08T12:25:06.261Z,1464.00
2017-11-08T12:26:06.179Z,1348.00
2017-11-08T12:27:06.130Z,1300.00
2017-11-08T12:28:06.008Z,1204.00
2017-11-08T12:29:05.922Z,1112.00
2017-11-08T12:30:06.183Z,1040.00
2017-11-08T12:31:05.744Z,1008.00
2017-11-08T12:32:05.664Z,1004.00
2017-11-08T12:33:05.570Z,988.00
2017-11-08T12:34:05.498Z,988.00
2017-11-08T12:35:05.401Z,976.00
2017-11-08T12:36:05.321Z,992.00
2017-11-08T12:37:05.242Z,988.00
2017-11-08T12:38:05.147Z,972.00
2017-11-08T12:39:05.054Z,944.00
2017-11-08T12:40:04.970Z,912.00
2017-11-08T12:41:04.883Z,916.00
2017-11-08T12:42:04.802Z,936.00
2017-11-08T12:43:04.713Z,912.00
2017-11-08T12:44:04.639Z,900.00
2017-11-08T12:45:04.549Z,912.00
2017-11-08T12:46:04.458Z,940.00